Time;durP1;ratioP1;P1;durP2;ratioP2;P2;SDS_P1;SDS_P2;PMS_P1;PMS_P2;Temp;Humidity;BMP_temperature;BMP_pressure;BME280_temperature;BME280_humidity;BME280_pressure;Samples;Min_cycle;Max_cycle;Signal;HPM_P1;HPM_P2
2021/11/08 00:00:29;;;;;;;;;;;;;;;5.92;84.59;97282.56;30001;982;1863;-59
2021/11/08 00:01:03;;;;;;;;;;;;;;;5.95;84.53;97284.75;30001;982;1876;-59
2021/11/08 00:01:35;;;;;;;;;;;;;;;5.97;84.48;97290.72;30001;983;1880;-60
2021/11/08 00:02:07;;;;;;;;;;;;;;;5.98;84.35;97289.66;30001;983;1880;-59
2021/11/08 00:02:38;;;;;;;;;;;;;;;5.99;84.21;97285.88;30001;983;1880;-60
2021/11/08 00:03:11;;;;;;;;;;;;;;;5.97;84.06;97289.91;30001;983;1880;-61
2021/11/08 00:03:46;;;;;;;;;;;;;;;5.97;84.31;97288.00;30001;983;1880;-60
2021/11/08 00:04:17;;;;;;;;;;;;;;;5.98;84.12;97289.66;30001;983;1880;-66
2021/11/08 00:04:50;;;;;;;;;;;;;;;6.03;83.82;97286.19;30001;983;1880;-60
2021/11/08 00:05:22;;;;;;;;;;;;;;;6.05;83.95;97287.56;30001;983;1863;-58
2021/11/08 00:05:53;;;;;;;;;;;;;;;6.09;83.68;97285.19;30001;983;1876;-58
2021/11/08 00:06:24;;;;;;;;;;;;;;;6.11;83.47;97279.53;30001;982;1880;-61
2021/11/08 00:06:56;;;;;;;;;;;;;;;6.09;83.52;97284.38;30001;982;1880;-65
2021/11/08 00:07:27;;;;;;;;;;;;;;;6.07;83.68;97281.13;30001;986;1875;-58
2021/11/08 00:08:01;;;;;;;;;;;;;;;6.03;83.68;97292.41;30001;982;1880;-60
2021/11/08 00:08:33;;;;;;;;;;;;;;;6.01;83.78;97289.13;30001;982;1880;-57
2021/11/08 00:09:05;;;;;;;;;;;;;;;6.04;83.65;97288.63;30001;983;1880;-63
2021/11/08 00:09:36;;;;;;;;;;;;;;;6.03;83.83;97287.00;30001;983;1880;-59
2021/11/08 00:10:08;;;;;;;;;;;;;;;6.07;83.60;97281.13;30001;983;1880;-57
2021/11/08 00:10:41;;;;;;;;;;;;;;;6.09;83.65;97284.38;30001;983;1862;-58
2021/11/08 00:11:13;;;;;;;;;;;;;;;6.11;83.24;97283.06;30001;983;1875;-63
2021/11/08 00:11:44;;;;;;;;;;;;;;;6.15;82.92;97280.66;30001;983;1880;-62
2021/11/08 00:12:17;;;;;;;;;;;;;;;6.13;83.07;97285.50;30001;983;1880;-60
2021/11/08 00:12:48;;;;;;;;;;;;;;;6.11;83.04;97276.84;30001;983;1880;-60
2021/11/08 00:13:20;;;;;;;;;;;;;;;6.13;82.72;97275.53;30002;982;1880;-59
2021/11/08 00:13:51;;;;;;;;;;;;;;;6.11;82.88;97274.97;30002;982;1880;-59
2021/11/08 00:14:24;;;;;;;;;;;;;;;6.14;82.99;97276.34;30002;982;1880;-58
2021/11/08 00:14:58;;;;;;;;;;;;;;;6.14;82.84;97270.94;30002;982;1880;-59
2021/11/08 00:16:38;;;;;;;;;;;;;;;6.16;82.50;97266.13;30002;983;1862;-59
2021/11/08 00:17:20;;;;;;;;;;;;;;;6.14;82.71;97263.69;30002;983;1875;-59
2021/11/08 00:18:00;;;;;;;;;;;;;;;6.13;82.46;97274.72;30002;983;1880;-60
2021/11/08 00:19:52;;;;;;;;;;;;;;;6.14;82.57;97268.25;30002;983;1880;-65
2021/11/08 00:20:29;;;;;;;;;;;;;;;6.14;82.44;97276.34;30002;983;1880;-62
2021/11/08 00:21:00;;;;;;;;;;;;;;;6.13;82.46;97272.84;30002;982;1880;-59
2021/11/08 00:21:33;;;;;;;;;;;;;;;6.09;82.69;97268.22;30002;982;1863;-59
2021/11/08 00:22:04;;;;;;;;;;;;;;;6.07;83.19;97273.84;30002;982;1876;-58
2021/11/08 00:22:38;;;;;;;;;;;;;;;6.05;83.25;97267.91;30002;982;1880;-64
2021/11/08 00:23:10;;;;;;;;;;;;;;;6.08;82.96;97271.97;30002;982;1881;-62
2021/11/08 00:23:41;;;;;;;;;;;;;;;6.08;82.95;97271.97;30002;982;1881;-61
2021/11/08 00:24:14;;;;;;;;;;;;;;;6.09;82.92;97274.41;30002;983;1880;-63
2021/11/08 00:24:48;;;;;;;;;;;;;;;6.09;82.79;97269.03;30002;983;1880;-61
2021/11/08 00:25:19;;;;;;;;;;;;;;;6.10;82.56;97269.84;30002;983;1880;-60
2021/11/08 00:25:51;;;;;;;;;;;;;;;6.07;82.68;97270.34;30002;983;1880;-59
2021/11/08 00:26:21;;;;;;;;;;;;;;;6.08;82.86;97277.34;30002;983;1880;-63
2021/11/08 00:26:53;;;;;;;;;;;;;;;6.08;82.65;97269.28;30002;983;1862;-59
2021/11/08 00:27:23;;;;;;;;;;;;;;;6.05;82.68;97274.09;30002;983;1876;-59
2021/11/08 00:27:55;;;;;;;;;;;;;;;6.04;83.01;97267.09;30002;983;1880;-62
2021/11/08 00:28:26;;;;;;;;;;;;;;;6.06;82.53;97264.13;30002;982;1880;-60
2021/11/08 00:28:57;;;;;;;;;;;;;;;6.03;82.77;97275.41;30002;982;1880;-66
2021/11/08 00:29:28;;;;;;;;;;;;;;;6.03;82.70;97268.16;30002;982;1880;-61
2021/11/08 00:29:59;;;;;;;;;;;;;;;6.05;82.56;97267.91;30002;982;1880;-60
2021/11/08 00:30:30;;;;;;;;;;;;;;;6.04;82.70;97272.47;30002;983;1880;-60
2021/11/08 00:31:01;;;;;;;;;;;;;;;6.03;82.57;97268.16;30002;983;1879;-65
2021/11/08 00:31:32;;;;;;;;;;;;;;;6.05;82.29;97270.59;30002;983;1880;-58
2021/11/08 00:32:04;;;;;;;;;;;;;;;6.04;82.22;97272.47;30002;983;1862;-58
2021/11/08 00:32:36;;;;;;;;;;;;;;;6.01;82.66;97272.97;30002;983;1858;-58
2021/11/08 00:33:08;;;;;;;;;;;;;;;6.03;82.50;97268.16;30002;983;1880;-59
2021/11/08 00:33:42;;;;;;;;;;;;;;;6.01;82.96;97272.97;30002;983;1880;-59
2021/11/08 00:34:20;;;;;;;;;;;;;;;6.01;82.45;97267.59;30002;983;1863;-59
2021/11/08 00:34:54;;;;;;;;;;;;;;;5.99;82.70;97277.81;30002;983;1876;-59
2021/11/08 00:35:26;;;;;;;;;;;;;;;5.94;82.80;97277.75;30002;983;1880;-59
2021/11/08 00:35:58;;;;;;;;;;;;;;;5.93;83.24;97272.63;30002;982;1880;-61
2021/11/08 00:36:29;;;;;;;;;;;;;;;5.96;82.59;97280.19;30002;982;1880;-60
2021/11/08 00:37:00;;;;;;;;;;;;;;;5.96;82.66;97278.31;30002;982;1880;-59
2021/11/08 00:37:30;;;;;;;;;;;;;;;5.95;82.78;97276.69;30002;982;1880;-63
2021/11/08 00:38:01;;;;;;;;;;;;;;;5.97;82.76;97277.25;30002;982;1880;-60
2021/11/08 00:38:32;;;;;;;;;;;;;;;5.93;82.67;97281.50;30002;983;1880;-59
2021/11/08 00:39:04;;;;;;;;;;;;;;;5.92;82.74;97279.06;30002;983;1880;-58
2021/11/08 00:39:35;;;;;;;;;;;;;;;5.91;82.94;97289.03;30002;983;1862;-58
2021/11/08 00:40:07;;;;;;;;;;;;;;;5.89;83.05;97279.59;30002;983;1875;-60
2021/11/08 00:40:38;;;;;;;;;;;;;;;5.89;83.22;97283.06;30002;983;1880;-60
2021/11/08 00:41:12;;;;;;;;;;;;;;;5.88;83.11;97281.44;30002;983;1880;-58
2021/11/08 00:41:42;;;;;;;;;;;;;;;5.89;83.11;97285.78;30002;983;1880;-58
2021/11/08 00:42:13;;;;;;;;;;;;;;;5.91;83.07;97289.03;30002;983;1871;-60
2021/11/08 00:42:44;;;;;;;;;;;;;;;5.91;83.34;97289.03;30002;983;1880;-59
2021/11/08 00:43:16;;;;;;;;;;;;;;;5.90;83.05;97287.41;30002;982;1863;-59
2021/11/08 00:43:46;;;;;;;;;;;;;;;5.90;83.15;97287.41;30002;982;1876;-59
2021/11/08 00:44:18;;;;;;;;;;;;;;;5.87;83.11;97293.28;30002;982;1880;-65
2021/11/08 00:44:49;;;;;;;;;;;;;;;5.87;83.31;97287.91;30002;982;1880;-69
2021/11/08 00:45:20;;;;;;;;;;;;;;;5.87;83.06;97295.97;30002;982;1880;-61
2021/11/08 00:45:52;;;;;;;;;;;;;;;5.87;83.29;97290.59;30002;983;1880;-60
2021/11/08 00:46:22;;;;;;;;;;;;;;;5.83;83.37;97291.34;30002;983;1880;-60
2021/11/08 00:46:56;;;;;;;;;;;;;;;5.83;83.41;97302.13;30002;983;1880;-60
2021/11/08 00:47:28;;;;;;;;;;;;;;;5.81;83.54;97294.28;30002;983;1880;-59
2021/11/08 00:48:00;;;;;;;;;;;;;;;5.82;83.42;97301.31;30002;983;1862;-58
2021/11/08 00:48:34;;;;;;;;;;;;;;;5.79;83.43;97291.03;30002;983;1875;-59
2021/11/08 00:49:06;;;;;;;;;;;;;;;5.80;83.65;97291.84;30002;983;1862;-61
2021/11/08 00:49:38;;;;;;;;;;;;;;;5.81;83.70;97299.69;30002;983;1876;-60
2021/11/08 00:50:11;;;;;;;;;;;;;;;5.82;83.72;97290.53;30002;983;1880;-60
2021/11/08 00:50:42;;;;;;;;;;;;;;;5.82;83.57;97293.22;30002;982;1880;-60
2021/11/08 00:51:15;;;;;;;;;;;;;;;5.78;83.67;97294.78;30002;982;1880;-59
2021/11/08 00:51:49;;;;;;;;;;;;;;;5.78;83.66;97293.97;30002;982;1880;-60
2021/11/08 00:52:20;;;;;;;;;;;;;;;5.73;83.80;97300.94;30002;982;1863;-59
2021/11/08 00:52:51;;;;;;;;;;;;;;;5.70;83.95;97295.22;30002;982;1876;-59
2021/11/08 00:53:22;;;;;;;;;;;;;;;5.65;83.91;97289.78;30002;983;1880;-61
2021/11/08 00:53:52;;;;;;;;;;;;;;;5.61;84.44;97299.41;30002;960;1903;-60
2021/11/08 00:54:23;;;;;;;;;;;;;;;5.56;84.31;97294.78;30002;986;1880;-60
2021/11/08 00:54:55;;;;;;;;;;;;;;;5.53;84.78;97289.13;30002;983;1880;-59
2021/11/08 00:55:27;;;;;;;;;;;;;;;5.48;85.03;97294.44;30002;983;1880;-60
2021/11/08 00:56:02;;;;;;;;;;;;;;;5.46;85.37;97293.88;30002;983;1880;-60
2021/11/08 00:56:33;;;;;;;;;;;;;;;5.44;85.28;97293.31;30002;983;1862;-60
2021/11/08 00:57:07;;;;;;;;;;;;;;;5.41;85.46;97293.81;30002;983;1876;-59
2021/11/08 00:57:39;;;;;;;;;;;;;;;5.35;85.63;97291.03;30002;983;1880;-58
2021/11/08 00:58:19;;;;;;;;;;;;;;;5.32;85.81;97291.53;30002;982;1880;-59
2021/11/08 00:58:50;;;;;;;;;;;;;;;5.28;85.86;97293.09;30002;982;1863;-59
2021/11/08 00:59:21;;;;;;;;;;;;;;;5.25;86.29;97290.91;30002;982;1876;-58
2021/11/08 00:59:54;;;;;;;;;;;;;;;5.24;86.17;97293.84;30002;986;1875;-59
2021/11/08 01:00:29;;;;;;;;;;;;;;;5.20;86.33;97288.13;30002;982;1880;-59
2021/11/08 01:01:04;;;;;;;;;;;;;;;5.16;86.46;97287.03;30002;983;1880;-59
2021/11/08 01:01:35;;;;;;;;;;;;;;;5.12;86.21;97288.59;30002;983;1880;-59
2021/11/08 01:02:06;;;;;;;;;;;;;;;5.08;86.71;97292.84;30002;983;1862;-59
2021/11/08 01:02:38;;;;;;;;;;;;;;;5.06;86.53;97292.25;30002;983;1875;-58
2021/11/08 01:03:11;;;;;;;;;;;;;;;5.02;86.87;97291.12;30002;983;1880;-59
2021/11/08 01:03:44;;;;;;;;;;;;;;;5.00;87.40;97293.25;30002;983;1862;-59
2021/11/08 01:04:20;;;;;;;;;;;;;;;4.98;87.27;97296.19;30002;983;1858;-59
2021/11/08 01:04:51;;;;;;;;;;;;;;;4.96;87.46;97298.31;30001;983;1880;-59
2021/11/08 01:05:22;;;;;;;;;;;;;;;4.96;87.64;97301.00;30001;982;1880;-59
2021/11/08 01:05:53;;;;;;;;;;;;;;;4.95;87.82;97301.25;30001;982;1880;-59
2021/11/08 01:06:24;;;;;;;;;;;;;;;4.94;87.89;97296.91;30001;982;1863;-59
2021/11/08 01:07:00;;;;;;;;;;;;;;;4.92;88.04;97294.47;30002;982;1876;-58
2021/11/08 01:07:30;;;;;;;;;;;;;;;4.92;88.06;97301.72;30001;982;1880;-59
2021/11/08 01:08:02;;;;;;;;;;;;;;;4.90;87.86;97299.28;30001;982;1880;-60
2021/11/08 01:08:33;;;;;;;;;;;;;;;4.89;88.28;97307.59;30001;983;1880;-60
2021/11/08 01:09:04;;;;;;;;;;;;;;;4.87;88.03;97304.34;30001;983;1880;-60
2021/11/08 01:09:35;;;;;;;;;;;;;;;4.87;88.34;97304.34;30001;983;1862;-59
2021/11/08 01:10:11;;;;;;;;;;;;;;;4.82;87.94;97304.28;30001;983;1875;-60
2021/11/08 01:10:43;;;;;;;;;;;;;;;4.77;87.99;97313.09;30001;983;1880;-60
2021/11/08 01:11:14;;;;;;;;;;;;;;;4.73;88.05;97311.94;30001;983;1880;-59
2021/11/08 01:11:45;;;;;;;;;;;;;;;4.70;88.50;97310.56;30001;983;1880;-59
2021/11/08 01:12:20;;;;;;;;;;;;;;;4.68;88.64;97310.00;30001;983;1880;-59
2021/11/08 01:12:51;;;;;;;;;;;;;;;4.68;88.58;97309.19;30002;982;1827;-60
2021/11/08 01:13:24;;;;;;;;;;;;;;;4.68;88.99;97312.69;30001;982;1863;-59
2021/11/08 01:13:55;;;;;;;;;;;;;;;4.67;88.87;97304.84;30001;982;1876;-60
2021/11/08 01:14:25;;;;;;;;;;;;;;;4.65;88.92;97317.72;30001;982;1863;-60
2021/11/08 01:14:56;;;;;;;;;;;;;;;4.62;89.23;97313.66;30001;982;1876;-60
2021/11/08 01:15:28;;;;;;;;;;;;;;;4.62;88.89;97310.97;30001;982;1880;-59
2021/11/08 01:15:58;;;;;;;;;;;;;;;4.62;89.24;97316.34;30001;983;1880;-59
2021/11/08 01:16:29;;;;;;;;;;;;;;;4.60;89.11;97307.69;30001;983;1880;-59
2021/11/08 01:17:00;;;;;;;;;;;;;;;4.59;89.10;97310.63;30001;983;1880;-60
2021/11/08 01:17:32;;;;;;;;;;;;;;;4.57;89.18;97316.25;30001;983;1880;-60
2021/11/08 01:18:02;;;;;;;;;;;;;;;4.56;89.26;97309.25;30001;983;1862;-59
2021/11/08 01:18:34;;;;;;;;;;;;;;;4.55;89.52;97307.62;30001;983;1858;-59
2021/11/08 01:19:07;;;;;;;;;;;;;;;4.56;89.80;97309.25;30001;983;1880;-59
2021/11/08 01:19:38;;;;;;;;;;;;;;;4.56;89.54;97313.81;30002;983;1830;-59
2021/11/08 01:20:10;;;;;;;;;;;;;;;4.53;89.44;97307.03;30001;982;1880;-58
2021/11/08 01:20:46;;;;;;;;;;;;;;;4.53;89.54;97314.28;30001;986;1880;-60
2021/11/08 01:21:17;;;;;;;;;;;;;;;4.52;89.81;97307.28;30001;982;1880;-59
2021/11/08 01:21:47;;;;;;;;;;;;;;;4.57;89.91;97310.06;30001;982;1880;-59
2021/11/08 01:22:20;;;;;;;;;;;;;;;4.57;89.90;97310.87;30001;982;1880;-60
2021/11/08 01:22:51;;;;;;;;;;;;;;;4.60;90.02;97299.62;30001;982;1880;-60
2021/11/08 01:23:25;;;;;;;;;;;;;;;4.61;89.92;97303.97;30001;983;1880;-59
2021/11/08 01:23:56;;;;;;;;;;;;;;;4.64;90.01;97306.16;30001;983;1862;-59
2021/11/08 01:24:27;;;;;;;;;;;;;;;4.64;89.88;97300.78;30001;983;1875;-59
2021/11/08 01:24:59;;;;;;;;;;;;;;;4.64;89.71;97311.53;30001;983;1880;-59
2021/11/08 01:25:31;;;;;;;;;;;;;;;4.64;89.84;97302.66;30001;983;1880;-59
2021/11/08 01:26:06;;;;;;;;;;;;;;;4.62;89.98;97308.28;30001;983;1880;-59
2021/11/08 01:26:37;;;;;;;;;;;;;;;4.65;89.99;97301.59;30001;983;1880;-60
2021/11/08 01:27:09;;;;;;;;;;;;;;;4.69;89.85;97305.44;30001;983;1880;-59
2021/11/08 01:27:46;;;;;;;;;;;;;;;4.67;89.60;97302.16;30001;982;1863;-59
2021/11/08 01:28:17;;;;;;;;;;;;;;;4.65;89.60;97302.41;30001;982;1876;-59
2021/11/08 01:28:49;;;;;;;;;;;;;;;4.65;89.52;97306.97;30001;982;1880;-59
2021/11/08 01:29:20;;;;;;;;;;;;;;;4.63;89.30;97301.84;30001;982;1880;-59
2021/11/08 01:29:51;;;;;;;;;;;;;;;4.61;89.60;97306.66;30001;982;1880;-60
2021/11/08 01:30:24;;;;;;;;;;;;;;;4.59;89.70;97311.44;30001;982;1881;-60
2021/11/08 01:30:56;;;;;;;;;;;;;;;4.58;89.81;97309.81;30001;983;1880;-60
2021/11/08 01:31:26;;;;;;;;;;;;;;;4.56;89.83;97306.56;30001;983;1880;-60
2021/11/08 01:31:59;;;;;;;;;;;;;;;4.56;89.95;97303.06;30001;983;1880;-60
2021/11/08 01:32:30;;;;;;;;;;;;;;;4.55;89.90;97312.19;30001;983;1862;-60
2021/11/08 01:33:04;;;;;;;;;;;;;;;4.52;90.22;97310.78;30001;983;1875;-58
2021/11/08 01:33:36;;;;;;;;;;;;;;;4.52;90.05;97310.78;30001;983;1862;-61
2021/11/08 01:34:07;;;;;;;;;;;;;;;4.51;90.18;97305.66;30001;983;1876;-60
2021/11/08 01:34:38;;;;;;;;;;;;;;;4.50;90.27;97304.88;30001;983;1880;-60
2021/11/08 01:35:12;;;;;;;;;;;;;;;4.50;90.30;97304.06;30001;982;1880;-59
2021/11/08 01:35:45;;;;;;;;;;;;;;;4.49;89.99;97311.31;30001;982;1880;-58
2021/11/08 01:36:21;;;;;;;;;;;;;;;4.47;90.18;97308.03;30001;982;1880;-59
2021/11/08 01:36:54;;;;;;;;;;;;;;;4.42;89.91;97305.28;30001;982;1880;-59
2021/11/08 01:37:25;;;;;;;;;;;;;;;4.40;89.91;97304.69;30001;982;1880;-58
2021/11/08 01:38:08;;;;;;;;;;;;;;;4.40;89.89;97314.62;30001;983;1880;-60
2021/11/08 01:38:48;;;;;;;;;;;;;;;4.39;89.91;97308.44;30001;983;1862;-59
2021/11/08 01:39:21;;;;;;;;;;;;;;;4.40;89.85;97309.25;30001;983;1875;-59
2021/11/08 01:39:52;;;;;;;;;;;;;;;4.38;90.02;97307.62;30001;983;1880;-59
2021/11/08 01:40:23;;;;;;;;;;;;;;;4.38;90.05;97312.19;30001;983;1880;-59
2021/11/08 01:40:54;;;;;;;;;;;;;;;4.36;90.07;97306.25;30001;983;1880;-59
2021/11/08 01:41:27;;;;;;;;;;;;;;;4.36;89.97;97308.94;30001;983;1880;-59
2021/11/08 01:42:00;;;;;;;;;;;;;;;4.37;90.04;97315.94;30001;983;1880;-58
2021/11/08 01:42:30;;;;;;;;;;;;;;;4.37;90.26;97315.94;30001;985;1876;-58
2021/11/08 01:43:02;;;;;;;;;;;;;;;4.37;90.23;97307.88;30001;982;1880;-58
2021/11/08 01:43:33;;;;;;;;;;;;;;;4.36;90.15;97315.12;30001;982;1880;-59
2021/11/08 01:44:04;;;;;;;;;;;;;;;4.35;89.94;97309.97;30001;982;1863;-58
2021/11/08 01:44:35;;;;;;;;;;;;;;;4.35;90.16;97318.84;30001;982;1876;-58
2021/11/08 01:45:06;;;;;;;;;;;;;;;4.36;90.16;97311.59;30001;982;1880;-58
2021/11/08 01:45:38;;;;;;;;;;;;;;;4.35;90.21;97312.66;30001;983;1880;-59
2021/11/08 01:46:09;;;;;;;;;;;;;;;4.34;90.18;97319.09;30001;983;1880;-59
2021/11/08 01:46:41;;;;;;;;;;;;;;;4.35;90.40;97318.03;30001;983;1862;-59
2021/11/08 01:47:12;;;;;;;;;;;;;;;4.35;90.27;97318.03;30001;983;1875;-58
2021/11/08 01:47:43;;;;;;;;;;;;;;;4.34;90.55;97319.91;30001;983;1880;-59
2021/11/08 01:48:13;;;;;;;;;;;;;;;4.35;90.59;97318.03;30001;983;1880;-59
2021/11/08 01:48:48;;;;;;;;;;;;;;;4.36;90.49;97319.66;30001;983;1862;-59
2021/11/08 01:49:19;;;;;;;;;;;;;;;4.36;90.74;97315.12;30001;983;1875;-58
2021/11/08 01:49:50;;;;;;;;;;;;;;;4.38;90.60;97328.31;30001;983;1880;-59
2021/11/08 01:50:21;;;;;;;;;;;;;;;4.37;90.16;97321.31;30001;982;1880;-59
2021/11/08 01:50:53;;;;;;;;;;;;;;;4.39;90.46;97324.56;30001;982;1880;-58
2021/11/08 01:51:24;;;;;;;;;;;;;;;4.40;90.31;97325.37;30001;982;1880;-59
2021/11/08 01:51:55;;;;;;;;;;;;;;;4.40;90.18;97326.19;30001;982;1863;-59
2021/11/08 01:52:27;;;;;;;;;;;;;;;4.40;90.18;97331.56;30001;982;1876;-58
2021/11/08 01:52:58;;;;;;;;;;;;;;;4.36;89.93;97325.84;30001;983;1880;-58
2021/11/08 01:53:30;;;;;;;;;;;;;;;4.33;90.12;97330.91;30001;983;1880;-59
2021/11/08 01:54:00;;;;;;;;;;;;;;;4.31;90.13;97331.13;30001;983;1880;-59
2021/11/08 01:54:32;;;;;;;;;;;;;;;4.31;90.10;97333.00;30001;983;1880;-59
2021/11/08 01:55:03;;;;;;;;;;;;;;;4.31;90.23;97333.81;30001;983;1880;-59
2021/11/08 01:55:36;;;;;;;;;;;;;;;4.31;90.37;97328.44;30001;983;1880;-59
2021/11/08 01:56:08;;;;;;;;;;;;;;;4.32;90.53;97331.94;30001;983;1880;-59
2021/11/08 01:56:40;;;;;;;;;;;;;;;4.33;90.46;97334.41;30001;983;1862;-58
2021/11/08 01:57:11;;;;;;;;;;;;;;;4.33;90.50;97331.72;30001;983;1876;-59
2021/11/08 01:57:42;;;;;;;;;;;;;;;4.33;90.67;97330.91;30001;983;1880;-59
2021/11/08 01:58:13;;;;;;;;;;;;;;;4.36;90.50;97336.59;30001;982;1880;-59
2021/11/08 01:58:44;;;;;;;;;;;;;;;4.36;90.17;97330.41;30001;982;1880;-59
2021/11/08 01:59:15;;;;;;;;;;;;;;;4.37;90.02;97332.87;30001;982;1880;-58
2021/11/08 01:59:46;;;;;;;;;;;;;;;4.37;90.10;97337.41;30001;982;1863;-59
2021/11/08 02:00:18;;;;;;;;;;;;;;;4.37;90.08;97332.03;30001;983;1858;-59
2021/11/08 02:00:49;;;;;;;;;;;;;;;4.38;89.96;97331.00;30001;983;1880;-58
2021/11/08 02:01:20;;;;;;;;;;;;;;;4.37;90.18;97332.03;30001;983;1880;-59
2021/11/08 02:01:51;;;;;;;;;;;;;;;4.37;90.02;97332.03;30001;983;1880;-58
2021/11/08 02:02:23;;;;;;;;;;;;;;;4.38;89.75;97339.06;30001;983;1880;-59
2021/11/08 02:02:54;;;;;;;;;;;;;;;4.37;90.20;97337.41;30001;983;1880;-58
2021/11/08 02:03:25;;;;;;;;;;;;;;;4.38;90.21;97333.69;30001;983;1880;-59
2021/11/08 02:03:56;;;;;;;;;;;;;;;4.39;89.76;97329.94;30001;983;1880;-60
2021/11/08 02:04:27;;;;;;;;;;;;;;;4.40;89.46;97342.31;30001;983;1863;-58
2021/11/08 02:04:58;;;;;;;;;;;;;;;4.38;89.33;97333.69;30001;983;1876;-55
2021/11/08 02:05:29;;;;;;;;;;;;;;;4.36;89.36;97331.22;30001;982;1880;-58
2021/11/08 02:06:00;;;;;;;;;;;;;;;4.35;89.44;97334.16;30001;982;1863;-61
2021/11/08 02:06:32;;;;;;;;;;;;;;;4.33;89.43;97330.91;30001;982;1876;-59
2021/11/08 02:07:03;;;;;;;;;;;;;;;4.29;89.36;97335.13;30001;982;1880;-60
2021/11/08 02:07:34;;;;;;;;;;;;;;;4.29;89.38;97335.13;30001;982;1880;-58
2021/11/08 02:08:04;;;;;;;;;;;;;;;4.27;89.43;97337.22;30001;983;1880;-60
2021/11/08 02:08:38;;;;;;;;;;;;;;;4.27;89.45;97337.22;30001;983;1880;-58
2021/11/08 02:09:09;;;;;;;;;;;;;;;4.23;89.39;97331.53;30001;983;1880;-60
2021/11/08 02:09:39;;;;;;;;;;;;;;;4.21;89.67;97341.69;30001;983;1880;-60
2021/11/08 02:10:13;;;;;;;;;;;;;;;4.21;89.61;97332.81;30001;983;1880;-59
2021/11/08 02:10:46;;;;;;;;;;;;;;;4.21;89.87;97340.87;30001;983;1880;-59
2021/11/08 02:11:20;;;;;;;;;;;;;;;4.20;89.85;97337.38;30001;983;1862;-59
2021/11/08 02:11:51;;;;;;;;;;;;;;;4.19;89.95;97341.13;30001;983;1876;-58
2021/11/08 02:12:21;;;;;;;;;;;;;;;4.18;89.79;97338.69;30001;982;1880;-59
2021/11/08 02:12:52;;;;;;;;;;;;;;;4.17;89.92;97334.34;30001;982;1880;-58
2021/11/08 02:13:24;;;;;;;;;;;;;;;4.15;89.88;97339.19;30001;982;1863;-59
2021/11/08 02:13:54;;;;;;;;;;;;;;;4.14;90.24;97332.19;30001;982;1876;-59
2021/11/08 02:14:25;;;;;;;;;;;;;;;4.15;90.33;97323.06;30001;982;1880;-59
2021/11/08 02:14:56;;;;;;;;;;;;;;;4.14;90.28;97332.19;30001;967;1904;-59
2021/11/08 02:15:28;;;;;;;;;;;;;;;4.14;90.29;97332.19;30001;983;1880;-59
2021/11/08 02:16:00;;;;;;;;;;;;;;;4.14;90.60;97327.63;30001;983;1880;-59
2021/11/08 02:16:31;;;;;;;;;;;;;;;4.12;90.42;97328.91;30001;983;1862;-58
2021/11/08 02:17:02;;;;;;;;;;;;;;;4.11;90.06;97327.28;30001;983;1875;-60
2021/11/08 02:17:33;;;;;;;;;;;;;;;4.11;90.33;97327.28;30001;983;1862;-60
2021/11/08 02:18:09;;;;;;;;;;;;;;;4.10;90.25;97328.34;30001;983;1875;-59
2021/11/08 02:18:40;;;;;;;;;;;;;;;4.09;90.27;97329.41;30001;983;1880;-59
2021/11/08 02:19:11;;;;;;;;;;;;;;;4.07;90.26;97328.81;30001;983;1880;-59
2021/11/08 02:19:42;;;;;;;;;;;;;;;4.07;90.29;97328.81;30001;986;1880;-59
2021/11/08 02:20:14;;;;;;;;;;;;;;;4.07;90.35;97331.50;30001;982;1880;-59
2021/11/08 02:20:48;;;;;;;;;;;;;;;4.05;90.29;97329.06;30001;982;1880;-59
2021/11/08 02:21:19;;;;;;;;;;;;;;;4.06;90.41;97329.88;30001;982;1880;-59
2021/11/08 02:21:51;;;;;;;;;;;;;;;4.05;90.39;97334.44;30001;982;1863;-58
2021/11/08 02:22:22;;;;;;;;;;;;;;;4.02;90.43;97335.72;30001;982;1876;-55
2021/11/08 02:22:58;;;;;;;;;;;;;;;4.00;90.25;97328.97;30001;983;1880;-58
2021/11/08 02:23:30;;;;;;;;;;;;;;;3.98;90.45;97331.88;30001;983;1880;-58
2021/11/08 02:24:03;;;;;;;;;;;;;;;3.96;90.55;97328.63;30001;983;1862;-59
2021/11/08 02:24:37;;;;;;;;;;;;;;;3.94;90.71;97330.72;30001;983;1875;-59
2021/11/08 02:25:08;;;;;;;;;;;;;;;3.94;90.74;97317.31;30001;983;1880;-59
2021/11/08 02:25:40;;;;;;;;;;;;;;;3.94;90.80;97320.00;30001;983;1880;-59
2021/11/08 02:26:15;;;;;;;;;;;;;;;3.94;90.70;97322.69;30001;983;1880;-59
2021/11/08 02:26:48;;;;;;;;;;;;;;;3.94;90.78;97322.69;30001;983;1863;-59
2021/11/08 02:27:19;;;;;;;;;;;;;;;3.91;90.65;97325.84;30001;982;1876;-60
2021/11/08 02:27:51;;;;;;;;;;;;;;;3.90;91.09;97326.06;30001;982;1880;-59
2021/11/08 02:28:22;;;;;;;;;;;;;;;3.90;90.84;97331.44;30001;982;1863;-58
2021/11/08 02:28:53;;;;;;;;;;;;;;;3.89;90.98;97327.13;30001;982;1876;-60
2021/11/08 02:29:24;;;;;;;;;;;;;;;3.88;90.97;97331.69;30001;982;1863;-58
2021/11/08 02:29:55;;;;;;;;;;;;;;;3.89;90.91;97329.81;30001;982;1876;-59
2021/11/08 02:30:28;;;;;;;;;;;;;;;3.89;91.16;97319.88;30001;983;1862;-60
2021/11/08 02:30:59;;;;;;;;;;;;;;;3.90;91.20;97326.91;30001;983;1875;-59
2021/11/08 02:31:33;;;;;;;;;;;;;;;3.88;91.28;97323.63;30001;983;1880;-59
2021/11/08 02:32:04;;;;;;;;;;;;;;;3.87;91.21;97327.38;30001;983;1880;-59
2021/11/08 02:32:35;;;;;;;;;;;;;;;3.87;91.37;97332.75;30001;983;1880;-60
2021/11/08 02:33:08;;;;;;;;;;;;;;;3.87;91.42;97330.06;30001;983;1880;-60
2021/11/08 02:33:39;;;;;;;;;;;;;;;3.86;91.55;97320.38;30001;983;1880;-58
2021/11/08 02:34:10;;;;;;;;;;;;;;;3.87;91.53;97327.38;30001;983;1880;-60
2021/11/08 02:34:41;;;;;;;;;;;;;;;3.87;91.32;97327.38;30001;982;1880;-58
2021/11/08 02:35:14;;;;;;;;;;;;;;;3.87;91.47;97322.00;30001;982;1880;-59
2021/11/08 02:35:45;;;;;;;;;;;;;;;3.88;91.42;97325.50;30001;982;1863;-58
2021/11/08 02:36:16;;;;;;;;;;;;;;;3.88;91.58;97323.63;30001;982;1876;-59
2021/11/08 02:36:47;;;;;;;;;;;;;;;3.88;91.43;97320.94;30001;982;1880;-59
2021/11/08 02:37:18;;;;;;;;;;;;;;;3.87;91.34;97332.75;30001;983;1880;-58
2021/11/08 02:37:50;;;;;;;;;;;;;;;3.87;91.32;97321.19;30001;983;1880;-60
2021/11/08 02:38:23;;;;;;;;;;;;;;;3.86;91.47;97331.09;30001;983;1880;-59
2021/11/08 02:38:56;;;;;;;;;;;;;;;3.86;91.44;97324.91;30001;983;1880;-60
2021/11/08 02:40:25;;;;;;;;;;;;;;;3.87;91.42;97326.56;30001;974;1895;-60
2021/11/08 02:40:58;;;;;;;;;;;;;;;3.88;91.57;97326.31;30001;983;1880;-58
2021/11/08 02:41:29;;;;;;;;;;;;;;;3.90;91.31;97324.22;30001;983;1880;-59
2021/11/08 02:42:00;;;;;;;;;;;;;;;3.89;91.23;97327.94;30001;983;1863;-60
2021/11/08 02:42:32;;;;;;;;;;;;;;;3.90;91.34;97324.22;30001;982;1876;-59
2021/11/08 02:43:03;;;;;;;;;;;;;;;3.91;91.25;97328.53;30001;982;1880;-59
2021/11/08 02:43:36;;;;;;;;;;;;;;;3.92;91.37;97335.53;30001;982;1880;-59
2021/11/08 02:44:07;;;;;;;;;;;;;;;3.91;91.42;97333.91;30001;982;1880;-59
2021/11/08 02:44:39;;;;;;;;;;;;;;;3.93;91.33;97329.09;30001;982;1880;-60
2021/11/08 02:45:10;;;;;;;;;;;;;;;3.93;91.37;97325.59;30001;983;1880;-60
2021/11/08 02:45:40;;;;;;;;;;;;;;;3.93;91.34;97334.47;30001;983;1880;-60
2021/11/08 02:46:16;;;;;;;;;;;;;;;3.93;91.44;97331.78;30001;971;1882;-59
2021/11/08 02:46:47;;;;;;;;;;;;;;;3.94;91.18;97338.78;30001;983;1875;-60
2021/11/08 02:47:18;;;;;;;;;;;;;;;3.94;91.18;97338.78;30001;983;1880;-60
2021/11/08 02:47:50;;;;;;;;;;;;;;;3.94;91.07;97337.97;30001;983;1880;-60
2021/11/08 02:48:21;;;;;;;;;;;;;;;3.94;91.10;97336.09;30001;983;1880;-60
2021/11/08 02:48:53;;;;;;;;;;;;;;;3.94;90.83;97337.97;30001;983;1880;-59
2021/11/08 02:49:25;;;;;;;;;;;;;;;3.93;91.13;97337.16;30001;983;1880;-60
2021/11/08 02:49:58;;;;;;;;;;;;;;;3.92;90.96;97330.16;30001;982;1880;-56
2021/11/08 02:50:31;;;;;;;;;;;;;;;3.93;90.92;97342.53;30001;982;1880;-59
2021/11/08 02:51:06;;;;;;;;;;;;;;;3.92;91.15;97335.53;30001;982;1880;-60
2021/11/08 02:51:43;;;;;;;;;;;;;;;3.92;91.02;97338.22;30001;982;1863;-60
2021/11/08 02:52:19;;;;;;;;;;;;;;;3.91;90.76;97333.06;30001;983;1875;-60
2021/11/08 02:52:51;;;;;;;;;;;;;;;3.92;91.14;97332.84;30001;983;1862;-59
2021/11/08 02:53:24;;;;;;;;;;;;;;;3.92;90.87;97340.06;30001;983;1875;-59
2021/11/08 02:54:04;;;;;;;;;;;;;;;3.90;90.94;97332.25;30001;983;1880;-59
2021/11/08 02:54:43;;;;;;;;;;;;;;;3.92;91.00;97340.91;30001;983;1880;-61
2021/11/08 02:55:16;;;;;;;;;;;;;;;3.93;90.92;97337.16;30001;983;1880;-60
2021/11/08 02:55:48;;;;;;;;;;;;;;;3.90;90.75;97339.50;30001;983;1880;-59
2021/11/08 02:56:19;;;;;;;;;;;;;;;3.89;90.70;97344.06;30001;983;1880;-60
2021/11/08 02:56:51;;;;;;;;;;;;;;;3.89;90.65;97345.91;30001;983;1880;-60
2021/11/08 02:57:24;;;;;;;;;;;;;;;3.88;90.72;97336.25;30001;982;1863;-60